createdAt,value
2023-04-19T00:02:27.260Z,8.60
2023-04-19T00:05:14.789Z,8.60
2023-04-19T00:08:01.829Z,8.60
2023-04-19T00:10:48.835Z,8.60
2023-04-19T00:13:35.945Z,8.60
2023-04-19T00:16:22.994Z,8.50
2023-04-19T00:19:11.213Z,8.60
2023-04-19T00:21:58.447Z,8.60
2023-04-19T00:24:45.554Z,8.80
2023-04-19T00:27:32.705Z,8.90
2023-04-19T00:30:19.944Z,8.90
2023-04-19T00:33:12.775Z,8.90
2023-04-19T00:36:00.308Z,9.00
2023-04-19T00:38:47.382Z,9.00
2023-04-19T00:41:34.493Z,9.00
2023-04-19T00:44:21.502Z,9.00
2023-04-19T00:47:08.658Z,9.00
2023-04-19T00:49:55.838Z,9.00
2023-04-19T00:52:43.273Z,8.90
2023-04-19T00:55:30.528Z,8.90
2023-04-19T00:58:18.059Z,8.90
2023-04-19T01:01:06.226Z,8.90
2023-04-19T01:03:53.790Z,9.00
2023-04-19T01:06:42.210Z,8.90
2023-04-19T01:09:31.520Z,8.90
2023-04-19T01:12:18.556Z,8.90
2023-04-19T01:15:06.126Z,8.90
2023-04-19T01:17:53.208Z,8.80
2023-04-19T01:20:41.867Z,8.90
2023-04-19T01:23:28.938Z,8.80
2023-04-19T01:26:16.325Z,8.80
2023-04-19T01:29:03.920Z,8.70
2023-04-19T01:31:53.559Z,8.60
2023-04-19T01:34:41.950Z,8.60
2023-04-19T01:37:29.002Z,8.60
2023-04-19T01:40:16.417Z,8.60
2023-04-19T01:43:03.436Z,8.50
2023-04-19T01:45:50.514Z,8.50
2023-04-19T01:48:39.684Z,8.50
2023-04-19T01:51:26.712Z,8.30
2023-04-19T01:54:14.619Z,8.30
2023-04-19T01:57:02.454Z,8.20
2023-04-19T01:59:50.322Z,8.10
2023-04-19T02:02:38.577Z,8.00
2023-04-19T02:05:25.689Z,8.00
2023-04-19T02:08:14.109Z,7.80
2023-04-19T02:11:05.984Z,7.80
2023-04-19T02:13:53.028Z,7.50
2023-04-19T02:16:40.163Z,7.40
2023-04-19T02:19:27.377Z,7.40
2023-04-19T02:22:14.428Z,7.20
2023-04-19T02:25:01.504Z,7.20
2023-04-19T02:27:51.146Z,7.20
2023-04-19T02:30:38.710Z,7.00
2023-04-19T02:33:27.090Z,7.00
2023-04-19T02:36:14.481Z,7.00
2023-04-19T02:39:01.543Z,6.90
2023-04-19T02:41:48.875Z,6.90
2023-04-19T02:44:35.947Z,6.90
2023-04-19T02:47:23.184Z,6.80
2023-04-19T02:50:11.841Z,6.80
2023-04-19T02:53:05.327Z,6.70
2023-04-19T02:55:53.675Z,6.60
2023-04-19T02:58:41.061Z,6.60
2023-04-19T03:01:28.458Z,6.60
2023-04-19T03:04:17.193Z,6.40
2023-04-19T03:07:04.477Z,6.50
2023-04-19T03:09:51.530Z,6.50
2023-04-19T03:12:40.423Z,6.40
2023-04-19T03:15:27.508Z,6.30
2023-04-19T03:18:15.323Z,6.10
2023-04-19T03:21:04.477Z,6.10
2023-04-19T03:23:59.221Z,6.00
2023-04-19T03:26:46.932Z,6.00
2023-04-19T03:29:35.126Z,5.90
2023-04-19T03:32:28.699Z,5.90
2023-04-19T03:35:16.040Z,5.80
2023-04-19T03:38:04.100Z,5.80
2023-04-19T03:40:51.588Z,5.70
2023-04-19T03:43:39.224Z,5.60
2023-04-19T03:46:26.596Z,5.60
2023-04-19T03:49:13.716Z,5.60
2023-04-19T03:52:03.594Z,5.60
2023-04-19T03:54:50.633Z,5.60
2023-04-19T03:57:59.136Z,5.40
2023-04-19T04:00:56.446Z,5.40
2023-04-19T04:03:43.884Z,5.50
2023-04-19T04:06:31.672Z,5.30
2023-04-19T04:09:19.064Z,5.30
2023-04-19T04:12:06.217Z,5.30
2023-04-19T04:14:53.273Z,5.30
2023-04-19T04:17:41.180Z,5.30
2023-04-19T04:20:28.259Z,5.30
2023-04-19T04:23:22.100Z,5.30
2023-04-19T04:26:10.983Z,5.30
2023-04-19T04:29:13.481Z,5.30
2023-04-19T04:32:02.595Z,5.10
2023-04-19T04:34:56.888Z,5.10
2023-04-19T04:37:54.035Z,5.00
2023-04-19T04:40:41.453Z,5.00
2023-04-19T04:43:29.726Z,5.00
2023-04-19T04:46:17.220Z,5.10
2023-04-19T04:49:05.417Z,5.00
2023-04-19T04:51:52.472Z,5.00
2023-04-19T04:54:41.264Z,5.10
2023-04-19T04:57:38.726Z,5.10
2023-04-19T05:00:28.065Z,5.00
2023-04-19T05:03:22.865Z,5.00
2023-04-19T05:06:15.169Z,5.10
2023-04-19T05:09:02.614Z,5.20
2023-04-19T05:11:53.550Z,5.30
2023-04-19T05:14:40.882Z,5.40
2023-04-19T05:17:27.911Z,5.50
2023-04-19T05:20:15.127Z,5.40
2023-04-19T05:23:03.939Z,5.40
2023-04-19T05:25:54.003Z,5.30
2023-04-19T05:28:45.389Z,5.40
2023-04-19T05:31:41.075Z,5.50
2023-04-19T05:34:38.317Z,5.60
2023-04-19T05:37:25.876Z,5.70
2023-04-19T05:40:13.765Z,5.50
2023-04-19T05:43:01.009Z,5.50
2023-04-19T05:45:48.140Z,5.60
2023-04-19T05:48:35.726Z,5.70
2023-04-19T05:51:54.276Z,5.70
2023-04-19T05:55:08.149Z,5.70
2023-04-19T05:58:00.851Z,5.70
2023-04-19T06:00:49.447Z,5.60
2023-04-19T06:03:40.024Z,5.60
2023-04-19T06:06:27.502Z,5.70
2023-04-19T06:09:15.082Z,5.70
2023-04-19T06:12:02.304Z,5.60
2023-04-19T06:14:49.784Z,5.60
2023-04-19T06:17:36.965Z,5.60
2023-04-19T06:20:24.058Z,5.70
2023-04-19T06:23:12.887Z,5.80
2023-04-19T06:25:59.877Z,5.80
2023-04-19T06:28:46.891Z,5.90
2023-04-19T06:31:34.157Z,5.90
2023-04-19T06:34:21.519Z,6.00
2023-04-19T06:37:08.568Z,6.00
2023-04-19T06:39:55.593Z,6.20
2023-04-19T06:42:42.606Z,6.20
2023-04-19T06:45:29.825Z,6.30
2023-04-19T06:48:16.873Z,6.40
2023-04-19T06:51:04.061Z,6.60
2023-04-19T06:53:51.107Z,6.70
2023-04-19T06:56:46.561Z,6.70
2023-04-19T06:59:33.632Z,6.90
2023-04-19T07:02:20.914Z,7.00
2023-04-19T07:05:08.535Z,7.20
2023-04-19T07:07:55.518Z,7.20
2023-04-19T07:10:43.773Z,7.10
2023-04-19T07:13:31.169Z,7.40
2023-04-19T07:16:18.552Z,7.40
2023-04-19T07:19:05.616Z,7.60
2023-04-19T07:21:52.703Z,7.60
2023-04-19T07:24:41.782Z,7.70
2023-04-19T07:27:29.157Z,7.80
2023-04-19T07:30:16.652Z,7.80
2023-04-19T07:33:04.958Z,7.80
2023-04-19T07:35:52.140Z,7.80
2023-04-19T07:38:39.549Z,8.00
2023-04-19T07:41:26.592Z,8.10
2023-04-19T07:44:14.309Z,8.10
2023-04-19T07:47:01.612Z,8.30
2023-04-19T07:49:52.412Z,8.40
2023-04-19T07:52:39.569Z,8.40
2023-04-19T07:55:26.596Z,8.50
2023-04-19T07:58:13.871Z,8.60
2023-04-19T08:01:01.343Z,8.60
2023-04-19T08:03:48.671Z,8.60
2023-04-19T08:06:38.087Z,8.80
2023-04-19T08:09:25.262Z,9.00
2023-04-19T08:12:17.189Z,9.00
2023-04-19T08:15:37.490Z,9.00
2023-04-19T08:18:20.743Z,9.10
2023-04-19T08:21:07.810Z,9.20
2023-04-19T08:23:54.877Z,9.00
2023-04-19T08:26:42.374Z,9.10
2023-04-19T08:29:29.518Z,9.20
2023-04-19T08:32:16.833Z,9.20
2023-04-19T08:35:04.267Z,9.30
2023-04-19T08:37:51.443Z,9.40
2023-04-19T08:40:50.823Z,9.40
2023-04-19T08:43:40.462Z,9.50
2023-04-19T08:46:30.664Z,9.60
2023-04-19T08:49:20.987Z,9.80
2023-04-19T08:52:12.667Z,9.90
2023-04-19T08:55:05.763Z,10.00
2023-04-19T08:57:52.788Z,10.00
2023-04-19T09:00:41.243Z,10.00
2023-04-19T09:03:28.465Z,10.00
2023-04-19T09:06:16.200Z,10.00
2023-04-19T09:09:33.932Z,10.00
2023-04-19T09:12:24.586Z,10.00
2023-04-19T09:15:11.629Z,10.10
2023-04-19T09:18:12.397Z,10.10
2023-04-19T09:21:00.358Z,10.10
2023-04-19T09:23:48.412Z,10.00
2023-04-19T09:26:36.025Z,10.10
2023-04-19T09:29:23.197Z,10.10
2023-04-19T09:32:12.207Z,10.10
2023-04-19T09:35:00.221Z,10.00
2023-04-19T09:38:06.389Z,10.20
2023-04-19T09:41:06.737Z,10.50
2023-04-19T09:44:11.732Z,10.60
2023-04-19T09:47:01.519Z,10.50
2023-04-19T09:49:49.717Z,10.50
2023-04-19T09:52:37.539Z,10.60
2023-04-19T09:55:28.225Z,10.70
2023-04-19T09:58:17.968Z,10.70
2023-04-19T10:03:59.150Z,10.80
2023-04-19T10:07:24.493Z,10.80
2023-04-19T10:10:11.688Z,11.00
2023-04-19T10:13:20.199Z,11.10
2023-04-19T10:16:18.833Z,11.10
2023-04-19T10:19:10.367Z,11.00
2023-04-19T10:21:58.056Z,11.00
2023-04-19T10:25:08.534Z,11.10
2023-04-19T10:27:55.858Z,11.40
2023-04-19T10:31:01.725Z,11.40
2023-04-19T10:33:49.463Z,11.30
2023-04-19T10:36:37.819Z,11.40
2023-04-19T10:39:44.941Z,11.50
2023-04-19T10:43:14.092Z,11.70
2023-04-19T10:46:02.590Z,11.70
2023-04-19T10:48:53.498Z,11.80
2023-04-19T10:51:47.294Z,11.90
2023-04-19T10:54:36.408Z,11.90
2023-04-19T10:57:25.240Z,11.70
2023-04-19T11:00:22.345Z,11.70
2023-04-19T11:03:43.737Z,11.90
2023-04-19T11:06:31.517Z,12.00
2023-04-19T11:09:34.563Z,12.00
2023-04-19T11:12:22.939Z,12.00
2023-04-19T11:15:10.606Z,12.20
2023-04-19T11:18:11.985Z,12.50
2023-04-19T11:21:01.177Z,12.80
2023-04-19T11:23:50.016Z,12.60
2023-04-19T11:26:37.245Z,12.60
2023-04-19T11:29:24.430Z,12.70
2023-04-19T11:32:11.850Z,12.70
2023-04-19T11:35:05.054Z,13.00
2023-04-19T11:37:53.105Z,13.10
2023-04-19T11:40:40.241Z,13.00
2023-04-19T11:43:37.459Z,12.90
2023-04-19T11:46:24.577Z,12.70
2023-04-19T11:49:25.996Z,12.80
2023-04-19T11:52:21.756Z,13.00
2023-04-19T11:55:18.568Z,13.10
2023-04-19T11:58:09.723Z,13.30
2023-04-19T12:01:02.627Z,13.30
2023-04-19T12:03:51.630Z,13.20
2023-04-19T12:06:39.223Z,13.10
2023-04-19T12:09:26.449Z,13.10
2023-04-19T12:12:13.695Z,13.20
2023-04-19T12:15:00.827Z,13.30
2023-04-19T12:18:01.947Z,13.50
2023-04-19T12:20:50.586Z,13.30
2023-04-19T12:23:37.885Z,13.30
2023-04-19T12:26:29.267Z,13.40
2023-04-19T12:29:16.704Z,13.60
2023-04-19T12:32:04.838Z,13.50
2023-04-19T12:34:51.942Z,13.50
2023-04-19T12:37:38.954Z,13.50
2023-04-19T12:40:27.424Z,13.50
2023-04-19T12:43:14.402Z,13.60
2023-04-19T12:46:01.750Z,13.70
2023-04-19T12:48:48.835Z,13.80
2023-04-19T12:51:36.229Z,13.60
2023-04-19T12:54:23.306Z,13.60
2023-04-19T12:57:10.386Z,13.70
2023-04-19T12:59:57.526Z,13.30
2023-04-19T13:02:44.706Z,13.10
2023-04-19T13:05:31.802Z,12.90
2023-04-19T13:08:28.283Z,13.30
2023-04-19T13:11:24.435Z,13.90
2023-04-19T13:14:11.444Z,14.10
2023-04-19T13:16:58.496Z,13.50
2023-04-19T13:19:45.569Z,13.30
2023-04-19T13:22:33.039Z,13.80
2023-04-19T13:25:20.651Z,14.00
2023-04-19T13:28:07.630Z,14.20
2023-04-19T13:30:54.748Z,13.90
2023-04-19T13:33:41.948Z,13.50
2023-04-19T13:36:29.178Z,13.30
2023-04-19T13:39:17.101Z,13.50
2023-04-19T13:42:04.375Z,13.50
2023-04-19T13:44:51.471Z,13.80
2023-04-19T13:47:38.497Z,13.80
2023-04-19T13:50:25.526Z,13.70
2023-04-19T13:53:12.552Z,13.90
2023-04-19T13:55:59.646Z,13.90
2023-04-19T13:58:46.766Z,13.90
2023-04-19T14:01:33.798Z,13.90
2023-04-19T14:04:21.925Z,13.70
2023-04-19T14:07:09.890Z,13.70
2023-04-19T14:09:56.895Z,13.50
2023-04-19T14:12:44.969Z,13.30
2023-04-19T14:15:32.032Z,13.30
2023-04-19T14:18:19.014Z,13.30
2023-04-19T14:21:06.271Z,13.20
2023-04-19T14:23:53.277Z,13.20
2023-04-19T14:26:40.298Z,13.30
2023-04-19T14:29:28.144Z,13.10
2023-04-19T14:32:26.146Z,13.90
2023-04-19T14:35:14.225Z,14.90
2023-04-19T14:38:01.524Z,14.40
2023-04-19T14:40:48.998Z,13.50
2023-04-19T14:43:36.075Z,13.10
2023-04-19T14:46:23.226Z,13.40
2023-04-19T14:49:10.344Z,15.60
2023-04-19T14:51:57.342Z,17.70
2023-04-19T14:54:44.499Z,18.40
2023-04-19T14:57:31.614Z,18.40
2023-04-19T15:00:19.046Z,17.00
2023-04-19T15:03:06.171Z,15.60
2023-04-19T15:05:53.382Z,14.90
2023-04-19T15:08:42.713Z,14.60
2023-04-19T15:11:29.730Z,13.80
2023-04-19T15:14:16.715Z,13.60
2023-04-19T15:17:04.033Z,15.00
2023-04-19T15:19:51.415Z,16.60
2023-04-19T15:22:38.478Z,16.10
2023-04-19T15:25:26.062Z,15.80
2023-04-19T15:28:13.052Z,16.20
2023-04-19T15:31:02.687Z,17.00
2023-04-19T15:33:49.739Z,18.00
2023-04-19T15:36:36.847Z,18.40
2023-04-19T15:39:23.840Z,19.70
2023-04-19T15:42:10.924Z,20.00
2023-04-19T15:44:57.996Z,19.00
2023-04-19T15:47:44.984Z,17.40
2023-04-19T15:50:32.708Z,16.30
2023-04-19T15:53:19.707Z,15.60
2023-04-19T15:56:07.231Z,15.80
2023-04-19T15:58:54.299Z,16.50
2023-04-19T16:01:41.489Z,16.40
2023-04-19T16:04:28.782Z,16.60
2023-04-19T16:07:15.940Z,16.10
2023-04-19T16:10:05.789Z,16.30
2023-04-19T16:12:52.780Z,17.50
2023-04-19T16:15:40.779Z,17.90
2023-04-19T16:18:27.832Z,17.60
2023-04-19T16:21:14.972Z,16.70
2023-04-19T16:24:01.940Z,17.40
2023-04-19T16:26:48.926Z,17.20
2023-04-19T16:29:36.070Z,16.40
2023-04-19T16:32:23.253Z,15.30
2023-04-19T16:35:10.756Z,14.10
2023-04-19T16:37:58.045Z,13.80
2023-04-19T16:40:47.694Z,13.90
2023-04-19T16:43:34.768Z,14.00
2023-04-19T16:46:21.929Z,13.70
2023-04-19T16:49:08.988Z,13.60
2023-04-19T16:51:56.131Z,13.70
2023-04-19T16:54:44.601Z,13.70
2023-04-19T16:57:32.487Z,13.40
2023-04-19T17:00:19.903Z,13.00
2023-04-19T17:03:09.904Z,12.50
2023-04-19T17:05:58.003Z,12.60
2023-04-19T17:08:45.100Z,12.50
2023-04-19T17:11:32.756Z,12.50
2023-04-19T17:14:19.809Z,12.50
2023-04-19T17:17:06.903Z,12.50
2023-04-19T17:19:56.490Z,12.50
2023-04-19T17:22:43.922Z,12.30
2023-04-19T17:25:31.016Z,12.40
2023-04-19T17:28:18.047Z,12.40
2023-04-19T17:31:05.160Z,12.10
2023-04-19T17:33:52.190Z,12.10
2023-04-19T17:36:39.569Z,11.90
2023-04-19T17:39:27.909Z,11.90
2023-04-19T17:42:15.060Z,11.90
2023-04-19T17:45:02.137Z,11.90
2023-04-19T17:47:49.143Z,11.90
2023-04-19T17:50:36.357Z,11.90
2023-04-19T17:53:23.374Z,11.70
2023-04-19T17:56:10.355Z,11.70
2023-04-19T17:59:00.478Z,11.50
2023-04-19T18:01:47.528Z,11.50
2023-04-19T18:04:34.779Z,11.50
2023-04-19T18:07:21.893Z,11.50
2023-04-19T18:10:09.773Z,11.40
2023-04-19T18:12:56.776Z,11.40
2023-04-19T18:15:43.858Z,11.30
2023-04-19T18:18:31.112Z,11.20
2023-04-19T18:21:18.472Z,11.10
2023-04-19T18:24:06.027Z,11.10
2023-04-19T18:26:53.055Z,11.00
2023-04-19T18:29:40.041Z,11.00
2023-04-19T18:32:28.657Z,11.00
2023-04-19T18:35:15.862Z,10.90
2023-04-19T18:38:02.994Z,10.80
2023-04-19T18:40:50.320Z,10.90
2023-04-19T18:43:37.559Z,10.70
2023-04-19T18:46:24.784Z,10.60
2023-04-19T18:49:11.894Z,10.60
2023-04-19T18:51:59.304Z,10.40
2023-04-19T18:54:46.619Z,10.40
2023-04-19T18:57:35.301Z,10.30
2023-04-19T19:00:22.712Z,10.20
2023-04-19T19:03:24.576Z,10.10
2023-04-19T19:06:17.025Z,10.10
2023-04-19T19:09:04.240Z,10.20
2023-04-19T19:11:56.514Z,10.00
2023-04-19T19:14:44.975Z,10.00
2023-04-19T19:17:32.115Z,10.00
2023-04-19T19:20:19.826Z,9.90
2023-04-19T19:23:07.216Z,9.90
2023-04-19T19:25:54.345Z,10.00
2023-04-19T19:28:42.156Z,10.00
2023-04-19T19:31:29.611Z,10.00
2023-04-19T19:34:27.231Z,10.00
2023-04-19T19:37:16.841Z,10.00
2023-04-19T19:40:06.608Z,10.00
2023-04-19T19:42:54.010Z,9.90
2023-04-19T19:45:41.572Z,9.80
2023-04-19T19:48:30.248Z,10.00
2023-04-19T19:54:07.434Z,9.60
2023-04-19T19:57:39.569Z,9.60
2023-04-19T20:03:00.830Z,9.40
2023-04-19T20:05:48.142Z,9.40
2023-04-19T20:08:38.202Z,9.40
2023-04-19T20:11:27.245Z,9.40
2023-04-19T20:14:14.255Z,9.40
2023-04-19T20:17:03.055Z,9.40
2023-04-19T20:19:52.114Z,9.40
2023-04-19T20:22:39.148Z,9.40
2023-04-19T20:25:26.449Z,9.30
2023-04-19T20:28:15.249Z,9.40
2023-04-19T20:31:02.413Z,9.30
2023-04-19T20:33:49.696Z,9.30
2023-04-19T20:36:37.067Z,9.20
2023-04-19T20:39:24.500Z,9.00
2023-04-19T20:42:11.597Z,9.00
2023-04-19T20:44:58.670Z,9.00
2023-04-19T20:47:46.920Z,8.80
2023-04-19T20:50:34.830Z,8.60
2023-04-19T20:53:21.948Z,8.60
2023-04-19T20:56:08.931Z,8.60
2023-04-19T20:58:56.575Z,8.50
2023-04-19T21:01:43.677Z,8.50
2023-04-19T21:04:30.812Z,8.60
2023-04-19T21:07:17.918Z,8.60
2023-04-19T21:10:05.920Z,8.40
2023-04-19T21:12:53.007Z,8.20
2023-04-19T21:15:40.168Z,7.80
2023-04-19T21:18:29.662Z,7.50
2023-04-19T21:21:16.731Z,7.50
2023-04-19T21:24:03.736Z,7.50
2023-04-19T21:26:50.821Z,7.50
2023-04-19T21:29:37.859Z,7.50
2023-04-19T21:32:26.592Z,7.50
2023-04-19T21:35:13.615Z,7.50
2023-04-19T21:38:00.658Z,7.50
2023-04-19T21:40:49.319Z,7.60
2023-04-19T21:43:36.702Z,7.60
2023-04-19T21:46:23.920Z,7.50
2023-04-19T21:49:10.974Z,7.60
2023-04-19T21:51:58.032Z,7.50
2023-04-19T21:54:45.440Z,7.50
2023-04-19T21:57:32.707Z,7.50
2023-04-19T22:00:19.923Z,7.50
2023-04-19T22:03:07.308Z,7.60
2023-04-19T22:05:54.457Z,7.50
2023-04-19T22:08:42.345Z,7.60
2023-04-19T22:11:30.052Z,7.70
2023-04-19T22:14:20.122Z,7.80
2023-04-19T22:17:07.224Z,7.70
2023-04-19T22:19:54.291Z,7.80
2023-04-19T22:22:41.658Z,7.80
2023-04-19T22:25:28.702Z,7.80
2023-04-19T22:28:15.914Z,7.80
2023-04-19T22:31:03.075Z,7.80
2023-04-19T22:33:50.361Z,7.80
2023-04-19T22:36:37.353Z,7.80
2023-04-19T22:39:25.732Z,7.80
2023-04-19T22:42:12.813Z,7.80
2023-04-19T22:44:59.842Z,7.80
2023-04-19T22:47:46.912Z,7.80
2023-04-19T22:50:34.221Z,8.00
2023-04-19T22:53:21.306Z,7.80
2023-04-19T22:56:08.386Z,7.80
2023-04-19T22:58:55.629Z,7.90
2023-04-19T23:01:42.757Z,7.80
2023-04-19T23:04:35.122Z,7.80
2023-04-19T23:07:22.627Z,7.80
2023-04-19T23:10:10.983Z,7.80
2023-04-19T23:12:58.222Z,7.90
2023-04-19T23:15:45.755Z,8.00
2023-04-19T23:18:32.886Z,7.80
2023-04-19T23:21:19.897Z,7.80
2023-04-19T23:24:07.013Z,7.80
2023-04-19T23:26:54.046Z,7.70
2023-04-19T23:29:41.081Z,7.70
2023-04-19T23:32:28.137Z,7.60
2023-04-19T23:35:15.249Z,7.50
2023-04-19T23:38:02.227Z,7.30
2023-04-19T23:40:49.226Z,7.30
2023-04-19T23:43:36.213Z,7.20
2023-04-19T23:46:23.225Z,7.20
2023-04-19T23:49:10.227Z,7.10
2023-04-19T23:51:57.281Z,7.00
2023-04-19T23:54:44.321Z,6.90
2023-04-19T23:57:34.921Z,6.90
